Time;durP1;ratioP1;P1;durP2;ratioP2;P2;SDS_P1;SDS_P2;PMS_P1;PMS_P2;Temp;Humidity;BMP_temperature;BMP_pressure;BME280_temperature;BME280_humidity;BME280_pressure;Samples;Min_cycle;Max_cycle;Signal;HPM_P1;HPM_P2
2023/07/30 00:07:09;;;;;;;;;0.00;0.00;;;;;;;;2;221891137;221891137;-78
2023/07/30 00:15:39;;;;;;;;;0.00;0.00;;;;;;;;2;263957020;263957020;-78
2023/07/30 00:23:13;;;;;;;;;0.00;0.00;;;;;;;;2;222184963;222184963;-78
2023/07/30 00:31:45;;;;;;;;;0.00;0.00;;;;;;;;2;263631695;263631695;-78
2023/07/30 00:39:14;;;;;;;;;0.00;0.00;;;;;;;;2;219714192;219714192;-78
2023/07/30 00:47:47;;;;;;;;;0.00;0.00;;;;;;;;2;265176533;265176533;-78
2023/07/30 00:55:17;;;;;;;;;0.00;0.00;;;;;;;;2;220940148;220940148;-78
2023/07/30 01:03:45;;;;;;;;;0.50;0.50;;;;;;;;2;260790644;260790644;-79
2023/07/30 01:11:18;;;;;;;;;0.00;0.00;;;;;;;;2;222536823;222536823;-77
2023/07/30 01:19:54;;;;;;;;;0.00;0.00;;;;;;;;2;264285715;264285715;-78
2023/07/30 01:27:26;;;;;;;;;0.00;0.00;;;;;;;;2;219721743;219721743;-77
2023/07/30 01:35:55;;;;;;;;;0.00;0.00;;;;;;;;2;263210262;263210262;-79
2023/07/30 01:43:33;;;;;;;;;1.00;1.00;;;;;;;;2;222198721;222198721;-78
2023/07/30 01:52:18;;;;;;;;;0.00;0.00;;;;;;;;2;272620479;272620479;-79
2023/07/30 02:00:01;;;;;;;;;7.50;0.00;;;;;;;;2;227029259;227029259;-80
2023/07/30 02:08:45;;;;;;;;;0.50;0.50;;;;;;;;2;269514433;269514433;-79
2023/07/30 02:16:27;;;;;;;;;0.00;0.00;;;;;;;;2;226497914;226497914;-79
2023/07/30 02:25:07;;;;;;;;;0.00;0.00;;;;;;;;2;267860741;267860741;-80
2023/07/30 02:32:48;;;;;;;;;0.00;0.00;;;;;;;;2;226411216;226411216;-78
2023/07/30 02:41:29;;;;;;;;;0.00;0.00;;;;;;;;2;269534349;269534349;-80
2023/07/30 02:49:10;;;;;;;;;0.00;0.00;;;;;;;;2;225060545;225060545;-80
2023/07/30 02:57:48;;;;;;;;;1.00;1.00;;;;;;;;2;268322974;268322974;-78
2023/07/30 03:05:29;;;;;;;;;0.00;0.00;;;;;;;;2;227263865;227263865;-79
2023/07/30 03:14:09;;;;;;;;;0.50;0.50;;;;;;;;2;268530044;268530044;-79
2023/07/30 03:21:50;;;;;;;;;0.00;0.00;;;;;;;;2;225714014;225714014;-79
2023/07/30 03:30:28;;;;;;;;;0.00;0.00;;;;;;;;2;268988736;268988736;-79
2023/07/30 03:38:08;;;;;;;;;0.00;0.00;;;;;;;;2;223459124;223459124;-79
2023/07/30 03:46:49;;;;;;;;;0.00;0.00;;;;;;;;2;269670921;269670921;-78
2023/07/30 03:54:30;;;;;;;;;1.00;1.00;;;;;;;;2;225201626;225201626;-78
2023/07/30 04:03:15;;;;;;;;;0.00;0.00;;;;;;;;2;271306553;271306553;-78
2023/07/30 04:10:58;;;;;;;;;0.00;0.00;;;;;;;;2;226497806;226497806;-79
2023/07/30 04:19:46;;;;;;;;;0.50;0.50;;;;;;;;2;273410687;273410687;-79
2023/07/30 04:27:33;;;;;;;;;0.50;0.50;;;;;;;;2;229010848;229010848;-79
2023/07/30 04:36:20;;;;;;;;;0.00;0.00;;;;;;;;2;271989679;271989679;-77
2023/07/30 04:44:06;;;;;;;;;0.50;0.50;;;;;;;;2;227829908;227829908;-77
2023/07/30 04:52:51;;;;;;;;;1.00;1.00;;;;;;;;2;269002746;269002746;-77
2023/07/30 05:00:34;;;;;;;;;11.50;0.50;;;;;;;;2;226216292;226216292;-77
2023/07/30 05:09:16;;;;;;;;;8.50;1.00;;;;;;;;2;269255731;269255731;-77
2023/07/30 05:16:59;;;;;;;;;0.00;0.00;;;;;;;;2;226593126;226593126;-79
2023/07/30 05:25:53;;;;;;;;;0.50;0.50;;;;;;;;2;273420602;273420602;-77
2023/07/30 05:33:51;;;;;;;;;0.00;0.00;;;;;;;;2;234069268;234069268;-71
2023/07/30 05:42:43;;;;;;;;;1.00;1.00;;;;;;;;2;278108288;278108288;-72
2023/07/30 05:50:24;;;;;;;;;0.00;0.00;;;;;;;;2;226374263;226374263;-71
2023/07/30 05:59:06;;;;;;;;;0.50;0.50;;;;;;;;2;269497479;269497479;-71
2023/07/30 06:06:46;;;;;;;;;0.50;0.50;;;;;;;;2;224824840;224824840;-70
2023/07/30 06:15:25;;;;;;;;;1.00;1.00;;;;;;;;2;268941987;268941987;-70
2023/07/30 06:23:01;;;;;;;;;0.00;0.00;;;;;;;;2;225727634;225727634;-71
2023/07/30 06:31:39;;;;;;;;;0.00;0.00;;;;;;;;2;265931210;265931210;-71
2023/07/30 06:39:21;;;;;;;;;0.00;0.00;;;;;;;;2;225836548;225836548;-71
2023/07/30 06:48:03;;;;;;;;;1.50;1.50;;;;;;;;2;268577838;268577838;-66
2023/07/30 06:55:46;;;;;;;;;0.50;0.50;;;;;;;;2;226687287;226687287;-67
2023/07/30 07:04:25;;;;;;;;;7.50;0.00;;;;;;;;2;268271328;268271328;-67
2023/07/30 07:12:06;;;;;;;;;1.50;1.50;;;;;;;;2;226895987;226895987;-66
2023/07/30 07:20:48;;;;;;;;;5.00;1.00;;;;;;;;2;269129601;269129601;-67
2023/07/30 07:28:28;;;;;;;;;0.00;0.00;;;;;;;;2;225881348;225881348;-66
2023/07/30 07:37:09;;;;;;;;;13.00;1.00;;;;;;;;2;268160617;268160617;-67
2023/07/30 07:44:50;;;;;;;;;2.50;2.50;;;;;;;;2;225973217;225973217;-66
2023/07/30 07:53:31;;;;;;;;;0.50;0.50;;;;;;;;2;268944273;268944273;-67
2023/07/30 08:01:21;;;;;;;;;1.00;1.00;;;;;;;;2;226530483;226530483;-67
2023/07/30 08:10:21;;;;;;;;;0.00;0.00;;;;;;;;2;279083913;279083913;-66
2023/07/30 08:18:19;;;;;;;;;3.50;1.00;;;;;;;;2;234071524;234071524;-66
2023/07/30 08:27:19;;;;;;;;;0.00;0.00;;;;;;;;2;279083788;279083788;-67
2023/07/30 08:35:16;;;;;;;;;4.00;4.00;;;;;;;;2;233529424;233529424;-65
2023/07/30 08:44:16;;;;;;;;;1.50;1.50;;;;;;;;2;279085303;279085303;-67
2023/07/30 08:52:16;;;;;;;;;1.00;1.00;;;;;;;;2;234071230;234071230;-67
2023/07/30 09:01:18;;;;;;;;;0.50;0.50;;;;;;;;2;279081628;279081628;-67
2023/07/30 09:09:15;;;;;;;;;0.50;0.50;;;;;;;;2;234071528;234071528;-67
2023/07/30 09:18:19;;;;;;;;;3.00;3.00;;;;;;;;2;279078907;279078907;-67
2023/07/30 09:26:16;;;;;;;;;1.50;1.50;;;;;;;;2;234071579;234071579;-67
2023/07/30 09:35:17;;;;;;;;;1.00;1.00;;;;;;;;2;279082056;279082056;-79
2023/07/30 09:43:10;;;;;;;;;0.00;0.00;;;;;;;;2;229913149;229913149;-78
2023/07/30 09:52:11;;;;;;;;;0.00;0.00;;;;;;;;2;278575070;278575070;-79
2023/07/30 10:00:09;;;;;;;;;2.50;2.50;;;;;;;;2;234066670;234066670;-79
2023/07/30 10:09:11;;;;;;;;;0.50;0.50;;;;;;;;2;279077985;279077985;-78
2023/07/30 10:17:11;;;;;;;;;1.00;1.00;;;;;;;;2;234067115;234067115;-79
2023/07/30 10:26:12;;;;;;;;;1.00;1.00;;;;;;;;2;279083748;279083748;-78
2023/07/30 10:34:10;;;;;;;;;0.00;0.00;;;;;;;;2;234067840;234067840;-79
2023/07/30 10:43:14;;;;;;;;;0.00;0.00;;;;;;;;2;279078346;279078346;-78
2023/07/30 10:51:15;;;;;;;;;0.00;0.00;;;;;;;;2;233807669;233807669;-78
2023/07/30 11:00:15;;;;;;;;;0.00;0.00;;;;;;;;2;279081186;279081186;-78
2023/07/30 11:08:09;;;;;;;;;0.00;0.00;;;;;;;;2;232946572;232946572;-79
2023/07/30 11:16:59;;;;;;;;;0.00;0.00;;;;;;;;2;272851173;272851173;-74
2023/07/30 11:24:45;;;;;;;;;0.50;0.50;;;;;;;;2;227861181;227861181;-78
2023/07/30 11:33:30;;;;;;;;;0.50;0.50;;;;;;;;2;270245442;270245442;-78
2023/07/30 11:41:15;;;;;;;;;0.00;0.00;;;;;;;;2;229963604;229963604;-76
2023/07/30 11:50:02;;;;;;;;;0.00;0.00;;;;;;;;2;271728258;271728258;-76
2023/07/30 11:57:48;;;;;;;;;1.00;1.00;;;;;;;;2;228027395;228027395;-76
2023/07/30 12:06:46;;;;;;;;;7.50;0.00;;;;;;;;2;271624321;271624321;-75
2023/07/30 12:14:44;;;;;;;;;0.00;0.00;;;;;;;;2;227795665;227795665;-77
2023/07/30 12:23:28;;;;;;;;;0.00;0.00;;;;;;;;2;271202280;271202280;-78
2023/07/30 12:31:03;;;;;;;;;0.00;0.00;;;;;;;;2;223543553;223543553;-77
2023/07/30 12:39:41;;;;;;;;;0.00;0.00;;;;;;;;2;266666472;266666472;-77
2023/07/30 12:47:20;;;;;;;;;2.00;2.00;;;;;;;;2;225557191;225557191;-77
2023/07/30 12:55:56;;;;;;;;;1.50;1.50;;;;;;;;2;267132283;267132283;-77
2023/07/30 13:03:35;;;;;;;;;0.50;0.50;;;;;;;;2;224527452;224527452;-77
2023/07/30 13:12:16;;;;;;;;;1.00;1.00;;;;;;;;2;269215708;269215708;-78
2023/07/30 13:19:57;;;;;;;;;4.50;0.50;;;;;;;;2;226456421;226456421;-78
2023/07/30 13:28:35;;;;;;;;;0.00;0.00;;;;;;;;2;267176742;267176742;-75
2023/07/30 13:36:11;;;;;;;;;0.50;0.50;;;;;;;;2;223235110;223235110;-76
2023/07/30 13:44:52;;;;;;;;;0.00;0.00;;;;;;;;2;267988383;267988383;-75
2023/07/30 13:52:28;;;;;;;;;1.00;1.00;;;;;;;;2;225512141;225512141;-75
2023/07/30 14:01:09;;;;;;;;;2.50;2.50;;;;;;;;2;268587744;268587744;-74
2023/07/30 14:08:51;;;;;;;;;0.50;0.50;;;;;;;;2;226786894;226786894;-75
2023/07/30 14:17:28;;;;;;;;;4.00;4.00;;;;;;;;2;266986519;266986519;-75
2023/07/30 14:25:05;;;;;;;;;4.50;1.00;;;;;;;;2;223057076;223057076;-73
2023/07/30 14:33:43;;;;;;;;;0.50;0.50;;;;;;;;2;268132560;268132560;-74
2023/07/30 14:41:21;;;;;;;;;0.50;0.50;;;;;;;;2;224446675;224446675;-77
2023/07/30 14:50:01;;;;;;;;;0.50;0.50;;;;;;;;2;268799589;268799589;-77
2023/07/30 14:57:37;;;;;;;;;0.50;0.50;;;;;;;;2;222565730;222565730;-76
2023/07/30 15:06:14;;;;;;;;;1.00;1.00;;;;;;;;2;267584519;267584519;-76
2023/07/30 15:13:52;;;;;;;;;0.00;0.00;;;;;;;;2;225301708;225301708;-75
2023/07/30 15:22:30;;;;;;;;;0.00;0.00;;;;;;;;2;266594585;266594585;-75
2023/07/30 15:30:10;;;;;;;;;3.00;3.00;;;;;;;;2;224278625;224278625;-69
2023/07/30 15:38:53;;;;;;;;;0.50;0.50;;;;;;;;2;269667950;269667950;-69
2023/07/30 15:46:31;;;;;;;;;1.00;1.00;;;;;;;;2;225046462;225046462;-69
2023/07/30 15:55:14;;;;;;;;;1.50;1.50;;;;;;;;2;270749305;270749305;-73
2023/07/30 16:06:01;;;;;;;;;1.00;1.00;;;;;;;;2;223581552;223581552;-73
2023/07/30 16:14:44;;;;;;;;;1.00;1.00;;;;;;;;2;269459472;269459472;-74
2023/07/30 16:22:27;;;;;;;;;0.50;0.50;;;;;;;;2;227479924;227479924;-72
2023/07/30 16:31:10;;;;;;;;;3.50;0.50;;;;;;;;2;269277504;269277504;-72
2023/07/30 16:38:54;;;;;;;;;2.00;2.00;;;;;;;;2;227200381;227200381;-72
2023/07/30 16:47:35;;;;;;;;;3.00;3.00;;;;;;;;2;269879469;269879469;-76
2023/07/30 16:55:17;;;;;;;;;0.50;0.50;;;;;;;;2;226609961;226609961;-76
2023/07/30 17:03:58;;;;;;;;;9.00;0.50;;;;;;;;2;269520019;269520019;-75
2023/07/30 17:11:38;;;;;;;;;0.00;0.00;;;;;;;;2;224130644;224130644;-75
2023/07/30 17:20:19;;;;;;;;;0.50;0.50;;;;;;;;2;269527969;269527969;-75
2023/07/30 17:27:58;;;;;;;;;0.50;0.50;;;;;;;;2;225845541;225845541;-75
2023/07/30 17:36:40;;;;;;;;;0.00;0.00;;;;;;;;2;270245842;270245842;-75
2023/07/30 17:44:19;;;;;;;;;0.00;0.00;;;;;;;;2;225700988;225700988;-75
2023/07/30 17:52:57;;;;;;;;;0.50;0.50;;;;;;;;2;267074186;267074186;-76
2023/07/30 18:00:43;;;;;;;;;0.50;0.50;;;;;;;;2;226064479;226064479;-75
2023/07/30 18:09:23;;;;;;;;;1.00;1.00;;;;;;;;2;268621321;268621321;-75
2023/07/30 18:17:02;;;;;;;;;0.00;0.00;;;;;;;;2;224790951;224790951;-76
2023/07/30 18:25:41;;;;;;;;;0.50;0.50;;;;;;;;2;268297282;268297282;-75
2023/07/30 18:33:19;;;;;;;;;2.00;2.00;;;;;;;;2;223513894;223513894;-75
2023/07/30 18:42:00;;;;;;;;;0.00;0.00;;;;;;;;2;268559428;268559428;-76
2023/07/30 18:49:41;;;;;;;;;1.00;1.00;;;;;;;;2;226579067;226579067;-75
2023/07/30 18:58:23;;;;;;;;;0.50;0.50;;;;;;;;2;269212515;269212515;-76
2023/07/30 19:06:03;;;;;;;;;0.00;0.00;;;;;;;;2;225558095;225558095;-75
2023/07/30 19:14:45;;;;;;;;;0.50;0.50;;;;;;;;2;269634816;269634816;-75
2023/07/30 19:22:25;;;;;;;;;1.00;1.00;;;;;;;;2;226846414;226846414;-73
2023/07/30 19:31:12;;;;;;;;;7.00;4.00;;;;;;;;2;271040381;271040381;-73
2023/07/30 19:38:51;;;;;;;;;2.00;2.00;;;;;;;;2;226087978;226087978;-73
2023/07/30 19:47:33;;;;;;;;;0.50;0.50;;;;;;;;2;269857497;269857497;-73
2023/07/30 19:55:13;;;;;;;;;1.50;1.50;;;;;;;;2;225781498;225781498;-72
2023/07/30 20:03:59;;;;;;;;;0.00;0.00;;;;;;;;2;271092388;271092388;-73
2023/07/30 20:11:44;;;;;;;;;0.50;0.50;;;;;;;;2;228143218;228143218;-74
2023/07/30 20:20:25;;;;;;;;;0.50;0.50;;;;;;;;2;269093581;269093581;-73
2023/07/30 20:28:06;;;;;;;;;1.00;1.00;;;;;;;;2;224786212;224786212;-74
2023/07/30 20:36:48;;;;;;;;;1.00;1.00;;;;;;;;2;269323112;269323112;-73
2023/07/30 20:44:27;;;;;;;;;2.00;2.00;;;;;;;;2;224192091;224192091;-73
2023/07/30 20:53:09;;;;;;;;;1.00;1.00;;;;;;;;2;269292280;269292280;-74
2023/07/30 21:00:52;;;;;;;;;0.50;0.50;;;;;;;;2;225630055;225630055;-73
2023/07/30 21:09:33;;;;;;;;;0.00;0.00;;;;;;;;2;268406902;268406902;-73
2023/07/30 21:17:17;;;;;;;;;0.50;0.50;;;;;;;;2;224770449;224770449;-72
2023/07/30 21:26:02;;;;;;;;;0.50;0.50;;;;;;;;2;271239932;271239932;-72
2023/07/30 21:33:44;;;;;;;;;1.00;1.00;;;;;;;;2;227251975;227251975;-72
2023/07/30 21:42:28;;;;;;;;;0.00;0.00;;;;;;;;2;269341800;269341800;-72
2023/07/30 21:50:08;;;;;;;;;1.50;1.50;;;;;;;;2;226075058;226075058;-73
2023/07/30 21:58:50;;;;;;;;;0.50;0.50;;;;;;;;2;269141493;269141493;-73
2023/07/30 22:06:32;;;;;;;;;0.00;0.00;;;;;;;;2;226128081;226128081;-71
2023/07/30 22:15:14;;;;;;;;;1.00;1.00;;;;;;;;2;268607629;268607629;-72
2023/07/30 22:22:49;;;;;;;;;1.00;1.00;;;;;;;;2;223407150;223407150;-73
2023/07/30 22:31:28;;;;;;;;;3.50;0.50;;;;;;;;2;267987929;267987929;-73
2023/07/30 22:39:06;;;;;;;;;1.00;1.00;;;;;;;;2;224796424;224796424;-73
2023/07/30 22:47:42;;;;;;;;;0.00;0.00;;;;;;;;2;267212109;267212109;-72
2023/07/30 22:55:21;;;;;;;;;1.00;1.00;;;;;;;;2;225571218;225571218;-73
2023/07/30 23:04:03;;;;;;;;;0.50;0.50;;;;;;;;2;269149478;269149478;-73
2023/07/30 23:11:42;;;;;;;;;2.50;2.50;;;;;;;;2;224586090;224586090;-73
2023/07/30 23:20:24;;;;;;;;;0.50;0.50;;;;;;;;2;271160713;271160713;-73
2023/07/30 23:28:03;;;;;;;;;1.00;1.00;;;;;;;;2;223938832;223938832;-73
2023/07/30 23:36:44;;;;;;;;;0.00;0.00;;;;;;;;2;268895743;268895743;-73
2023/07/30 23:44:24;;;;;;;;;0.50;0.50;;;;;;;;2;226142530;226142530;-72
2023/07/30 23:53:10;;;;;;;;;1.50;1.50;;;;;;;;2;271679653;271679653;-73
